createdAt,value
2018-11-01T00:00:47.129Z,0.00
2018-11-01T00:01:47.096Z,0.00
2018-11-01T00:02:47.108Z,0.00
2018-11-01T00:03:47.042Z,0.00
2018-11-01T00:04:46.994Z,0.00
2018-11-01T00:05:47.861Z,0.00
2018-11-01T00:06:46.979Z,0.00
2018-11-01T00:07:46.908Z,0.00
2018-11-01T00:08:46.873Z,0.00
2018-11-01T00:09:46.852Z,0.00
2018-11-01T00:10:47.361Z,0.00
2018-11-01T00:11:46.817Z,0.00
2018-11-01T00:12:46.739Z,0.00
2018-11-01T00:13:46.750Z,0.00
2018-11-01T00:14:46.670Z,0.00
2018-11-01T00:15:47.369Z,0.00
2018-11-01T00:16:46.664Z,0.00
2018-11-01T00:17:46.575Z,0.00
2018-11-01T00:18:46.540Z,0.00
2018-11-01T00:19:47.369Z,0.00
2018-11-01T00:20:46.478Z,0.00
2018-11-01T00:21:46.488Z,0.00
2018-11-01T00:22:47.364Z,0.00
2018-11-01T00:23:46.922Z,0.00
2018-11-01T00:24:46.344Z,0.00
2018-11-01T00:25:46.317Z,0.00
2018-11-01T00:26:46.420Z,0.00
2018-11-01T00:27:46.428Z,0.00
2018-11-01T00:28:46.863Z,0.00
2018-11-01T00:29:46.183Z,0.00
2018-11-01T00:30:46.868Z,0.00
2018-11-01T00:31:46.118Z,0.00
2018-11-01T00:32:46.145Z,0.00
2018-11-01T00:33:46.065Z,0.00
2018-11-01T00:34:46.022Z,0.00
2018-11-01T00:35:45.987Z,0.00
2018-11-01T00:36:46.867Z,0.00
2018-11-01T00:37:45.985Z,0.00
2018-11-01T00:38:45.894Z,0.00
2018-11-01T00:39:45.863Z,0.00
2018-11-01T00:40:45.822Z,0.00
2018-11-01T00:41:45.791Z,0.00
2018-11-01T00:42:45.803Z,0.00
2018-11-01T00:43:45.728Z,0.00
2018-11-01T00:44:45.693Z,0.00
2018-11-01T00:45:46.420Z,0.00
2018-11-01T00:46:45.643Z,0.00
2018-11-01T00:47:45.605Z,0.00
2018-11-01T00:48:45.612Z,0.00
2018-11-01T00:49:45.927Z,0.00
2018-11-01T00:50:45.504Z,0.00
2018-11-01T00:51:45.467Z,0.00
2018-11-01T00:52:45.436Z,0.00
2018-11-01T00:53:46.363Z,0.00
2018-11-01T00:54:45.418Z,0.00
2018-11-01T00:55:45.340Z,0.00
2018-11-01T00:56:45.307Z,0.00
2018-11-01T00:57:45.273Z,0.00
2018-11-01T00:58:45.243Z,0.00
2018-11-01T00:59:45.254Z,0.00
2018-11-01T01:00:45.225Z,0.00
2018-11-01T01:01:45.871Z,0.00
2018-11-01T01:02:45.933Z,0.00
2018-11-01T01:03:45.927Z,0.00
2018-11-01T01:04:45.101Z,0.00
2018-11-01T01:05:45.036Z,0.00
2018-11-01T01:06:44.983Z,0.00
2018-11-01T01:07:44.946Z,0.00
2018-11-01T01:08:44.933Z,0.00
2018-11-01T01:09:44.931Z,0.00
2018-11-01T01:10:44.861Z,0.00
2018-11-01T01:11:44.859Z,0.00
2018-11-01T01:12:44.810Z,0.00
2018-11-01T01:13:44.747Z,0.00
2018-11-01T01:14:45.370Z,0.00
2018-11-01T01:15:44.932Z,0.00
2018-11-01T01:16:44.660Z,0.00
2018-11-01T01:17:44.667Z,0.00
2018-11-01T01:18:44.627Z,0.00
2018-11-01T01:19:44.555Z,0.00
2018-11-01T01:20:44.573Z,0.00
2018-11-01T01:21:44.487Z,0.00
2018-11-01T01:22:44.459Z,0.00
2018-11-01T01:23:45.368Z,0.00
2018-11-01T01:24:45.385Z,0.00
2018-11-01T01:25:44.399Z,0.00
2018-11-01T01:26:44.874Z,0.00
2018-11-01T01:27:44.558Z,0.00
2018-11-01T01:28:44.422Z,0.00
2018-11-01T01:29:44.224Z,0.00
2018-11-01T01:30:44.274Z,0.00
2018-11-01T01:31:44.164Z,0.00
2018-11-01T01:32:44.871Z,0.00
2018-11-01T01:33:44.868Z,0.00
2018-11-01T01:34:44.177Z,0.00
2018-11-01T01:35:44.088Z,0.00
2018-11-01T01:36:43.992Z,0.00
2018-11-01T01:37:43.960Z,0.00
2018-11-01T01:38:43.928Z,0.00
2018-11-01T01:39:43.912Z,0.00
2018-11-01T01:40:43.963Z,0.00
2018-11-01T01:41:43.831Z,0.00
2018-11-01T01:42:43.797Z,0.00
2018-11-01T01:43:43.768Z,0.00
2018-11-01T01:44:43.772Z,0.00
2018-11-01T01:45:44.374Z,0.00
2018-11-01T01:46:44.380Z,0.00
2018-11-01T01:47:43.637Z,0.00
2018-11-01T01:48:43.647Z,0.00
2018-11-01T01:49:43.925Z,0.00
2018-11-01T01:50:43.577Z,0.00
2018-11-01T01:51:43.929Z,0.00
2018-11-01T01:52:44.375Z,0.00
2018-11-01T01:53:43.444Z,0.00
2018-11-01T01:54:43.407Z,0.00
2018-11-01T01:55:43.383Z,0.00
2018-11-01T01:56:43.381Z,0.00
2018-11-01T01:57:43.311Z,0.00
2018-11-01T01:58:43.279Z,0.00
2018-11-01T01:59:43.241Z,0.00
2018-11-01T02:00:43.205Z,0.00
2018-11-01T02:01:43.430Z,0.00
2018-11-01T02:02:43.142Z,0.00
2018-11-01T02:03:43.107Z,0.00
2018-11-01T02:04:43.118Z,0.00
2018-11-01T02:05:43.050Z,0.00
2018-11-01T02:06:43.053Z,0.00
2018-11-01T02:07:42.983Z,0.00
2018-11-01T02:08:42.960Z,0.00
2018-11-01T02:09:43.875Z,0.00
2018-11-01T02:10:42.945Z,0.00
2018-11-01T02:11:42.894Z,0.00
2018-11-01T02:12:42.929Z,0.00
2018-11-01T02:13:43.373Z,0.00
2018-11-01T02:14:42.802Z,0.00
2018-11-01T02:15:42.926Z,0.00
2018-11-01T02:16:42.685Z,0.00
2018-11-01T02:17:42.661Z,0.00
2018-11-01T02:18:43.385Z,0.00
2018-11-01T02:19:42.934Z,0.00
2018-11-01T02:20:43.375Z,0.00
2018-11-01T02:21:43.372Z,0.00
2018-11-01T02:22:42.497Z,0.00
2018-11-01T02:23:43.429Z,0.00
2018-11-01T02:24:43.385Z,0.00
2018-11-01T02:25:43.376Z,0.00
2018-11-01T02:26:42.874Z,0.00
2018-11-01T02:27:42.972Z,0.00
2018-11-01T02:28:42.443Z,0.00
2018-11-01T02:29:42.260Z,0.00
2018-11-01T02:30:42.268Z,0.00
2018-11-01T02:31:42.194Z,0.00
2018-11-01T02:32:42.876Z,0.00
2018-11-01T02:33:42.450Z,0.00
2018-11-01T02:34:42.874Z,0.00
2018-11-01T02:35:42.099Z,0.00
2018-11-01T02:36:42.881Z,0.00
2018-11-01T02:37:42.940Z,0.00
2018-11-01T02:38:42.992Z,0.00
2018-11-01T02:39:42.436Z,0.00
2018-11-01T02:40:42.875Z,0.00
2018-11-01T02:41:42.383Z,0.00
2018-11-01T02:42:42.375Z,0.00
2018-11-01T02:43:42.377Z,0.00
2018-11-01T02:44:42.431Z,0.00
2018-11-01T02:45:41.929Z,0.00
2018-11-01T02:46:41.698Z,0.00
2018-11-01T02:47:42.380Z,0.00
2018-11-01T02:48:42.378Z,0.00
2018-11-01T02:49:42.380Z,0.00
2018-11-01T02:50:41.988Z,0.00
2018-11-01T02:51:42.416Z,0.00
2018-11-01T02:52:42.382Z,0.00
2018-11-01T02:53:42.384Z,0.00
2018-11-01T02:54:41.432Z,0.00
2018-11-01T02:55:41.936Z,0.00
2018-11-01T02:56:41.878Z,0.00
2018-11-01T02:57:41.885Z,0.00
2018-11-01T02:58:41.877Z,0.00
2018-11-01T02:59:43.849Z,0.00
2018-11-01T03:00:41.478Z,0.00
2018-11-01T03:01:41.271Z,0.00
2018-11-01T03:02:41.171Z,0.00
2018-11-01T03:03:41.883Z,0.00
2018-11-01T03:04:41.888Z,0.00
2018-11-01T03:05:41.079Z,0.00
2018-11-01T03:06:41.435Z,0.00
2018-11-01T03:07:41.439Z,0.00
2018-11-01T03:08:41.878Z,0.00
2018-11-01T03:09:41.879Z,0.00
2018-11-01T03:10:41.891Z,0.00
2018-11-01T03:11:41.380Z,0.00
2018-11-01T03:12:40.948Z,0.00
2018-11-01T03:13:40.937Z,0.00
2018-11-01T03:14:40.777Z,0.00
2018-11-01T03:15:40.738Z,0.00
2018-11-01T03:16:41.380Z,0.00
2018-11-01T03:17:40.937Z,0.00
2018-11-01T03:18:41.379Z,0.00
2018-11-01T03:19:41.382Z,0.00
2018-11-01T03:20:41.381Z,0.00
2018-11-01T03:21:41.406Z,0.00
2018-11-01T03:22:40.942Z,0.00
2018-11-01T03:23:40.472Z,0.00
2018-11-01T03:24:40.934Z,0.00
2018-11-01T03:25:40.493Z,0.00
2018-11-01T03:26:40.959Z,0.00
2018-11-01T03:27:40.392Z,0.00
2018-11-01T03:28:40.313Z,0.00
2018-11-01T03:29:40.317Z,0.00
2018-11-01T03:30:42.884Z,0.00
2018-11-01T03:31:40.435Z,0.00
2018-11-01T03:32:40.880Z,0.00
2018-11-01T03:33:40.885Z,0.00
2018-11-01T03:34:40.677Z,0.00
2018-11-01T03:35:40.953Z,0.00
2018-11-01T03:36:40.039Z,0.00
2018-11-01T03:37:40.978Z,0.00
2018-11-01T03:38:40.952Z,0.00
2018-11-01T03:39:39.938Z,0.00
2018-11-01T03:40:39.952Z,0.00
2018-11-01T03:41:40.381Z,0.00
2018-11-01T03:42:39.868Z,0.00
2018-11-01T03:43:39.814Z,0.00
2018-11-01T03:44:39.941Z,0.00
2018-11-01T03:45:39.751Z,0.00
2018-11-01T03:46:40.383Z,0.00
2018-11-01T03:47:40.384Z,0.00
2018-11-01T03:48:39.656Z,0.00
2018-11-01T03:49:39.645Z,0.00
2018-11-01T03:50:39.620Z,0.00
2018-11-01T03:51:39.638Z,0.00
2018-11-01T03:52:39.508Z,0.00
2018-11-01T03:53:39.594Z,0.00
2018-11-01T03:54:39.503Z,0.00
2018-11-01T03:55:39.938Z,0.00
2018-11-01T03:56:39.377Z,0.00
2018-11-01T03:57:39.347Z,0.00
2018-11-01T03:58:39.884Z,0.00
2018-11-01T03:59:39.276Z,0.00
2018-11-01T04:00:39.298Z,0.00
2018-11-01T04:01:39.885Z,0.00
2018-11-01T04:02:39.884Z,0.00
2018-11-01T04:03:39.933Z,0.00
2018-11-01T04:04:39.888Z,0.00
2018-11-01T04:05:39.451Z,0.00
2018-11-01T04:06:39.883Z,0.00
2018-11-01T04:07:39.007Z,0.00
2018-11-01T04:08:38.973Z,0.00
2018-11-01T04:09:39.887Z,0.00
2018-11-01T04:10:39.540Z,0.00
2018-11-01T04:11:39.388Z,0.00
2018-11-01T04:12:39.391Z,0.00
2018-11-01T04:13:39.484Z,0.00
2018-11-01T04:14:38.798Z,0.00
2018-11-01T04:15:38.952Z,0.00
2018-11-01T04:16:38.879Z,0.00
2018-11-01T04:17:39.428Z,0.00
2018-11-01T04:18:39.393Z,0.00
2018-11-01T04:19:38.684Z,0.00
2018-11-01T04:20:39.401Z,0.00
2018-11-01T04:21:38.546Z,0.00
2018-11-01T04:22:38.512Z,0.00
2018-11-01T04:23:38.475Z,0.00
2018-11-01T04:24:38.933Z,0.00
2018-11-01T04:25:38.416Z,0.00
2018-11-01T04:26:38.458Z,0.00
2018-11-01T04:27:38.894Z,0.00
2018-11-01T04:28:38.910Z,0.00
2018-11-01T04:29:38.323Z,0.00
2018-11-01T04:30:38.887Z,0.00
2018-11-01T04:31:39.793Z,0.00
2018-11-01T04:32:38.175Z,0.00
2018-11-01T04:33:39.011Z,0.00
2018-11-01T04:34:38.442Z,0.00
2018-11-01T04:35:38.929Z,0.00
2018-11-01T04:36:38.942Z,0.00
2018-11-01T04:37:38.007Z,0.00
2018-11-01T04:38:38.442Z,0.00
2018-11-01T04:39:38.446Z,0.00
2018-11-01T04:40:38.513Z,0.00
2018-11-01T04:41:38.409Z,0.00
2018-11-01T04:42:37.844Z,0.00
2018-11-01T04:43:38.394Z,0.00
2018-11-01T04:44:37.825Z,0.00
2018-11-01T04:45:37.744Z,0.00
2018-11-01T04:46:38.392Z,0.00
2018-11-01T04:47:38.482Z,0.00
2018-11-01T04:48:38.392Z,0.00
2018-11-01T04:49:37.660Z,0.00
2018-11-01T04:50:37.579Z,0.00
2018-11-01T04:51:37.947Z,0.00
2018-11-01T04:52:37.513Z,0.00
2018-11-01T04:53:38.387Z,0.00
2018-11-01T04:54:37.944Z,0.00
2018-11-01T04:55:37.409Z,0.00
2018-11-01T04:56:37.376Z,0.00
2018-11-01T04:57:37.344Z,0.00
2018-11-01T04:58:37.350Z,0.00
2018-11-01T04:59:37.278Z,0.00
2018-11-01T05:00:37.244Z,0.00
2018-11-01T05:01:37.214Z,0.00
2018-11-01T05:02:37.175Z,0.00
2018-11-01T05:03:37.217Z,0.00
2018-11-01T05:04:37.111Z,0.00
2018-11-01T05:05:37.089Z,0.00
2018-11-01T05:06:37.053Z,0.00
2018-11-01T05:07:37.899Z,0.00
2018-11-01T05:08:37.979Z,0.00
2018-11-01T05:09:37.892Z,0.00
2018-11-01T05:10:36.907Z,0.00
2018-11-01T05:11:37.403Z,0.00
2018-11-01T05:12:37.403Z,0.00
2018-11-01T05:13:37.459Z,0.00
2018-11-01T05:14:36.775Z,0.00
2018-11-01T05:15:37.392Z,0.00
2018-11-01T05:16:37.392Z,0.00
2018-11-01T05:17:36.675Z,0.00
2018-11-01T05:18:37.300Z,0.00
2018-11-01T05:19:37.400Z,0.00
2018-11-01T05:20:37.389Z,0.00
2018-11-01T05:21:37.397Z,0.00
2018-11-01T05:22:36.966Z,0.00
2018-11-01T05:23:36.483Z,0.00
2018-11-01T05:24:36.458Z,0.00
2018-11-01T05:25:36.451Z,0.00
2018-11-01T05:26:36.390Z,0.00
2018-11-01T05:27:36.447Z,0.00
2018-11-01T05:28:36.892Z,0.00
2018-11-01T05:29:36.353Z,4.00
2018-11-01T05:30:36.455Z,4.00
2018-11-01T05:31:36.891Z,0.00
2018-11-01T05:32:36.897Z,0.00
2018-11-01T05:33:36.906Z,4.00
2018-11-01T05:34:36.215Z,4.00
2018-11-01T05:35:36.904Z,4.00
2018-11-01T05:36:36.053Z,4.00
2018-11-01T05:37:36.016Z,4.00
2018-11-01T05:38:35.987Z,4.00
2018-11-01T05:39:37.978Z,8.00
2018-11-01T05:40:36.447Z,8.00
2018-11-01T05:41:35.885Z,8.00
2018-11-01T05:42:36.410Z,12.00
2018-11-01T05:43:35.835Z,16.00
2018-11-01T05:44:36.419Z,20.00
2018-11-01T05:45:35.801Z,20.00
2018-11-01T05:46:36.416Z,24.00
2018-11-01T05:47:36.466Z,28.00
2018-11-01T05:48:36.449Z,36.00
2018-11-01T05:49:36.394Z,40.00
2018-11-01T05:50:35.959Z,48.00
2018-11-01T05:51:36.449Z,56.00
2018-11-01T05:52:36.406Z,60.00
2018-11-01T05:53:35.489Z,72.00
2018-11-01T05:54:36.392Z,80.00
2018-11-01T05:55:35.465Z,88.00
2018-11-01T05:56:35.446Z,104.00
2018-11-01T05:57:35.903Z,112.00
2018-11-01T05:58:35.324Z,124.00
2018-11-01T05:59:35.287Z,136.00
2018-11-01T06:00:35.253Z,148.00
2018-11-01T06:01:35.450Z,160.00
2018-11-01T06:02:35.913Z,172.00
2018-11-01T06:03:35.894Z,180.00
2018-11-01T06:04:35.905Z,192.00
2018-11-01T06:05:35.125Z,204.00
2018-11-01T06:06:35.456Z,212.00
2018-11-01T06:07:35.030Z,228.00
2018-11-01T06:08:35.905Z,236.00
2018-11-01T06:09:34.954Z,252.00
2018-11-01T06:10:34.923Z,268.00
2018-11-01T06:11:35.816Z,284.00
2018-11-01T06:12:35.544Z,304.00
2018-11-01T06:13:35.403Z,320.00
2018-11-01T06:14:34.788Z,340.00
2018-11-01T06:15:34.771Z,364.00
2018-11-01T06:16:34.962Z,384.00
2018-11-01T06:17:34.690Z,416.00
2018-11-01T06:18:35.421Z,440.00
2018-11-01T06:19:35.411Z,464.00
2018-11-01T06:20:35.501Z,492.00
2018-11-01T06:21:34.962Z,516.00
2018-11-01T06:22:34.568Z,544.00
2018-11-01T06:23:35.398Z,576.00
2018-11-01T06:24:35.402Z,600.00
2018-11-01T06:25:34.454Z,628.00
2018-11-01T06:26:34.897Z,664.00
2018-11-01T06:27:34.407Z,704.00
2018-11-01T06:28:34.904Z,756.00
2018-11-01T06:29:34.310Z,808.00
2018-11-01T06:30:34.259Z,860.00
2018-11-01T06:31:34.898Z,908.00
2018-11-01T06:32:34.236Z,932.00
2018-11-01T06:33:34.236Z,956.00
2018-11-01T06:34:34.920Z,980.00
2018-11-01T06:35:34.284Z,1012.00
2018-11-01T06:36:34.916Z,1040.00
2018-11-01T06:37:34.464Z,1076.00
2018-11-01T06:38:34.005Z,1124.00
2018-11-01T06:39:33.964Z,1168.00
2018-11-01T06:40:33.928Z,1216.00
2018-11-01T06:41:33.922Z,1264.00
2018-11-01T06:42:33.904Z,1288.00
2018-11-01T06:43:33.947Z,1300.00
2018-11-01T06:44:33.895Z,1304.00
2018-11-01T06:45:33.763Z,1304.00
2018-11-01T06:46:33.726Z,1304.00
2018-11-01T06:47:33.699Z,1316.00
2018-11-01T06:48:33.716Z,1336.00
2018-11-01T06:49:33.641Z,1372.00
2018-11-01T06:50:33.599Z,1432.00
2018-11-01T06:51:33.605Z,1504.00
2018-11-01T06:52:33.555Z,1560.00
2018-11-01T06:53:33.537Z,1640.00
2018-11-01T06:54:34.399Z,1724.00
2018-11-01T06:55:33.439Z,1812.00
2018-11-01T06:56:33.401Z,1908.00
2018-11-01T06:57:33.365Z,2012.00
2018-11-01T06:58:33.497Z,2124.00
2018-11-01T06:59:33.351Z,2236.00
2018-11-01T07:00:33.912Z,2336.00
2018-11-01T07:01:33.452Z,2436.00
2018-11-01T07:02:33.203Z,2524.00
2018-11-01T07:03:33.213Z,2620.00
2018-11-01T07:04:33.465Z,2708.00
2018-11-01T07:05:33.975Z,2792.00
2018-11-01T07:06:33.064Z,2892.00
2018-11-01T07:07:33.037Z,2980.00
2018-11-01T07:08:32.999Z,3044.00
2018-11-01T07:09:33.018Z,3076.00
2018-11-01T07:10:32.945Z,3068.00
2018-11-01T07:11:33.097Z,3056.00
2018-11-01T07:12:32.868Z,3060.00
2018-11-01T07:13:32.840Z,3084.00
2018-11-01T07:14:32.811Z,3100.00
2018-11-01T07:15:32.811Z,3140.00
2018-11-01T07:16:32.784Z,3164.00
2018-11-01T07:17:32.836Z,3208.00
2018-11-01T07:18:32.675Z,3248.00
2018-11-01T07:19:32.640Z,3264.00
2018-11-01T07:20:32.612Z,3388.00
2018-11-01T07:23:19.260Z,3752.00
2018-11-01T07:24:11.102Z,3772.00
2018-11-01T07:25:11.035Z,3752.00
2018-11-01T07:26:11.119Z,3800.00
2018-11-01T07:27:10.927Z,3964.00
2018-11-01T07:28:10.877Z,4048.00
2018-11-01T07:29:10.855Z,4268.00
2018-11-01T07:30:10.857Z,4568.00
2018-11-01T07:31:10.793Z,4684.00
2018-11-01T07:32:10.746Z,4728.00
2018-11-01T07:33:10.719Z,4508.00
2018-11-01T07:34:10.680Z,4232.00
2018-11-01T07:35:11.274Z,3980.00
2018-11-01T07:36:10.613Z,3768.00
2018-11-01T07:37:10.580Z,3576.00
2018-11-01T07:38:10.548Z,3440.00
2018-11-01T07:39:10.516Z,3360.00
2018-11-01T07:40:10.554Z,3348.00
2018-11-01T07:41:10.509Z,3316.00
2018-11-01T07:42:10.478Z,3280.00
2018-11-01T07:43:10.396Z,3240.00
2018-11-01T07:44:10.663Z,3248.00
2018-11-01T07:45:10.330Z,3336.00
2018-11-01T07:46:10.300Z,3444.00
2018-11-01T07:47:10.305Z,3596.00
2018-11-01T07:48:10.233Z,3776.00
2018-11-01T07:49:10.209Z,3960.00
2018-11-01T07:50:10.191Z,4156.00
2018-11-01T07:51:10.140Z,4384.00
2018-11-01T07:52:10.182Z,4524.00
2018-11-01T07:53:10.078Z,4664.00
2018-11-01T07:54:10.042Z,4748.00
2018-11-01T07:55:10.009Z,4848.00
2018-11-01T07:56:10.618Z,4944.00
2018-11-01T07:57:09.987Z,5076.00
2018-11-01T07:58:09.961Z,5160.00
2018-11-01T07:59:09.881Z,5228.00
2018-11-01T08:00:10.708Z,5296.00
2018-11-01T08:01:09.819Z,5396.00
2018-11-01T08:02:09.836Z,5516.00
2018-11-01T08:03:09.759Z,5660.00
2018-11-01T08:04:09.756Z,5744.00
2018-11-01T08:05:09.693Z,5768.00
2018-11-01T08:06:09.679Z,5684.00
2018-11-01T08:07:09.688Z,5640.00
2018-11-01T08:08:09.601Z,5564.00
2018-11-01T08:09:09.568Z,5440.00
2018-11-01T08:10:09.536Z,5352.00
2018-11-01T08:11:09.511Z,5356.00
2018-11-01T08:12:09.522Z,5452.00
2018-11-01T08:13:09.442Z,5636.00
2018-11-01T08:14:09.412Z,5904.00
2018-11-01T08:15:09.383Z,6240.00
2018-11-01T08:16:09.352Z,6616.00
2018-11-01T08:17:09.379Z,6932.00
2018-11-01T08:18:09.290Z,7160.00
2018-11-01T08:19:09.317Z,7248.00
2018-11-01T08:20:09.450Z,7144.00
2018-11-01T08:21:09.367Z,6928.00
2018-11-01T08:22:09.171Z,6568.00
2018-11-01T08:23:09.182Z,6200.00
2018-11-01T08:24:09.104Z,5928.00
2018-11-01T08:25:09.071Z,5848.00
2018-11-01T08:26:09.052Z,5716.00
2018-11-01T08:27:09.016Z,5576.00
2018-11-01T08:28:09.383Z,5664.00
2018-11-01T08:29:08.952Z,5732.00
2018-11-01T08:30:09.021Z,5720.00
2018-11-01T08:31:08.888Z,5672.00
2018-11-01T08:32:08.865Z,5736.00
2018-11-01T08:33:08.834Z,5764.00
2018-11-01T08:34:08.868Z,5668.00
2018-11-01T08:35:08.810Z,5524.00
2018-11-01T08:36:14.123Z,5352.00
2018-11-01T08:37:08.757Z,5244.00
2018-11-01T08:38:08.679Z,5284.00
2018-11-01T08:39:08.774Z,5492.00
2018-11-01T08:40:08.672Z,5800.00
2018-11-01T08:41:08.849Z,6092.00
2018-11-01T08:42:08.555Z,6236.00
2018-11-01T08:43:08.525Z,6380.00
2018-11-01T08:44:08.581Z,6452.00
2018-11-01T08:45:08.471Z,6520.00
2018-11-01T08:46:08.508Z,6580.00
2018-11-01T08:47:08.408Z,6468.00
2018-11-01T08:48:08.374Z,6476.00
2018-11-01T08:49:08.376Z,6520.00
2018-11-01T08:50:08.326Z,6448.00
2018-11-01T08:51:08.330Z,6384.00
2018-11-01T08:52:08.398Z,6364.00
2018-11-01T08:53:08.245Z,6424.00
2018-11-01T08:54:08.196Z,6516.00
2018-11-01T08:55:08.168Z,6696.00
2018-11-01T08:56:08.142Z,6892.00
2018-11-01T08:57:08.168Z,7052.00
2018-11-01T08:58:08.074Z,7160.00
2018-11-01T08:59:08.048Z,7216.00
2018-11-01T09:00:08.027Z,7236.00
2018-11-01T09:01:07.990Z,7272.00
2018-11-01T09:02:08.000Z,7344.00
2018-11-01T09:03:07.942Z,7388.00
2018-11-01T09:04:08.771Z,7364.00
2018-11-01T09:05:07.865Z,7316.00
2018-11-01T09:06:08.745Z,7224.00
2018-11-01T09:07:07.852Z,7280.00
2018-11-01T09:08:07.858Z,7324.00
2018-11-01T09:09:08.720Z,7308.00
2018-11-01T09:10:07.776Z,7280.00
2018-11-01T09:11:07.700Z,7332.00
2018-11-01T09:12:07.661Z,7512.00
2018-11-01T09:13:08.270Z,7728.00
2018-11-01T09:14:07.650Z,8020.00
2018-11-01T09:15:08.219Z,8200.00
2018-11-01T09:16:07.542Z,8432.00
2018-11-01T09:17:07.560Z,8716.00
2018-11-01T09:18:07.495Z,9164.00
2018-11-01T09:19:07.503Z,9676.00
2018-11-01T09:20:07.473Z,9920.00
2018-11-01T09:21:07.395Z,9812.00
2018-11-01T09:22:07.384Z,9564.00
2018-11-01T09:23:07.336Z,9276.00
2018-11-01T09:24:07.303Z,9100.00
2018-11-01T09:25:07.324Z,8948.00
2018-11-01T09:26:07.413Z,8744.00
2018-11-01T09:27:07.262Z,8648.00
2018-11-01T09:28:07.190Z,8552.00
2018-11-01T09:29:07.232Z,8652.00
2018-11-01T09:30:07.134Z,8644.00
2018-11-01T09:31:07.109Z,8700.00
2018-11-01T09:32:07.119Z,8836.00
2018-11-01T09:33:07.050Z,8988.00
2018-11-01T09:34:07.080Z,9096.00
2018-11-01T09:35:07.021Z,9220.00
2018-11-01T09:36:06.965Z,9064.00
2018-11-01T09:37:06.937Z,8592.00
2018-11-01T09:38:06.904Z,7964.00
2018-11-01T09:39:06.921Z,7276.00
2018-11-01T09:40:06.855Z,6676.00
2018-11-01T09:41:06.872Z,6124.00
2018-11-01T09:42:06.807Z,5572.00
2018-11-01T09:43:06.768Z,5100.00
2018-11-01T09:44:06.741Z,4680.00
2018-11-01T09:45:06.706Z,4352.00
2018-11-01T09:46:06.884Z,4032.00
2018-11-01T09:47:06.947Z,3764.00
2018-11-01T09:48:06.628Z,3556.00
2018-11-01T09:49:06.599Z,3376.00
2018-11-01T09:50:06.568Z,3280.00
2018-11-01T09:51:06.586Z,3200.00
2018-11-01T09:52:06.512Z,3184.00
2018-11-01T09:53:06.484Z,3220.00
2018-11-01T09:54:06.453Z,3292.00
2018-11-01T09:55:06.480Z,3400.00
2018-11-01T09:56:06.548Z,3516.00
2018-11-01T09:57:06.366Z,3680.00
2018-11-01T09:58:06.339Z,3876.00
2018-11-01T09:59:06.314Z,4128.00
2018-11-01T10:00:06.345Z,4464.00
2018-11-01T10:01:06.324Z,4824.00
2018-11-01T10:02:06.263Z,5156.00
2018-11-01T10:03:06.248Z,5484.00
2018-11-01T10:04:06.302Z,5856.00
2018-11-01T10:05:06.132Z,6196.00
2018-11-01T10:06:06.124Z,6496.00
2018-11-01T10:07:06.215Z,6736.00
2018-11-01T10:08:06.049Z,6896.00
2018-11-01T10:09:06.143Z,7120.00
2018-11-01T10:10:05.992Z,7256.00
2018-11-01T10:11:05.965Z,7376.00
2018-11-01T10:12:05.989Z,7444.00
2018-11-01T10:13:05.924Z,7348.00
2018-11-01T10:14:05.874Z,7176.00
2018-11-01T10:15:05.917Z,7036.00
2018-11-01T10:16:05.893Z,7080.00
2018-11-01T10:17:06.118Z,7220.00
2018-11-01T10:18:06.107Z,7332.00
2018-11-01T10:19:05.776Z,7484.00
2018-11-01T10:20:05.754Z,7536.00
2018-11-01T10:21:06.044Z,7376.00
2018-11-01T10:22:05.752Z,7224.00
2018-11-01T10:23:05.684Z,7052.00
2018-11-01T10:24:05.641Z,6916.00
2018-11-01T10:25:05.571Z,7016.00
2018-11-01T10:26:05.578Z,7312.00
2018-11-01T10:27:06.261Z,7708.00
2018-11-01T10:28:05.518Z,8228.00
2018-11-01T10:29:05.443Z,8536.00
2018-11-01T10:30:06.242Z,8584.00
2018-11-01T10:31:05.433Z,8388.00
2018-11-01T10:32:05.365Z,8004.00
2018-11-01T10:33:06.234Z,7596.00
2018-11-01T10:34:05.406Z,7328.00
2018-11-01T10:35:05.275Z,7316.00
2018-11-01T10:36:05.289Z,7556.00
2018-11-01T10:37:05.219Z,7908.00
2018-11-01T10:38:05.189Z,8164.00
2018-11-01T10:39:05.276Z,8680.00
2018-11-01T10:40:05.133Z,9524.00
2018-11-01T10:41:05.747Z,9972.00
2018-11-01T10:42:05.184Z,9736.00
2018-11-01T10:43:05.739Z,9496.00
2018-11-01T10:44:05.067Z,9352.00
2018-11-01T10:45:05.001Z,9280.00
2018-11-01T10:46:04.986Z,9568.00
2018-11-01T10:47:04.937Z,10040.00
2018-11-01T10:48:04.961Z,10032.00
2018-11-01T10:49:04.885Z,9508.00
2018-11-01T10:50:04.855Z,8708.00
2018-11-01T10:51:04.836Z,7980.00
2018-11-01T10:52:04.800Z,7316.00
2018-11-01T10:53:04.850Z,6704.00
2018-11-01T10:54:04.771Z,6216.00
2018-11-01T10:55:04.804Z,5708.00
2018-11-01T10:56:04.709Z,5384.00
2018-11-01T10:57:04.670Z,5184.00
2018-11-01T10:58:04.636Z,5080.00
2018-11-01T10:59:04.682Z,5036.00
2018-11-01T11:00:04.758Z,5028.00
2018-11-01T11:01:04.623Z,5204.00
2018-11-01T11:02:04.533Z,5244.00
2018-11-01T11:03:04.508Z,5348.00
2018-11-01T11:04:04.515Z,5436.00
2018-11-01T11:05:05.241Z,5496.00
2018-11-01T11:06:04.467Z,5628.00
2018-11-01T11:07:04.389Z,5884.00
2018-11-01T11:08:04.368Z,6172.00
2018-11-01T11:09:04.341Z,6492.00
2018-11-01T11:10:04.323Z,6848.00
2018-11-01T11:11:04.358Z,7440.00
2018-11-01T11:12:04.253Z,8284.00
2018-11-01T11:13:04.224Z,8852.00
2018-11-01T11:14:04.198Z,9060.00
2018-11-01T11:15:04.239Z,8920.00
2018-11-01T11:16:04.650Z,8736.00
2018-11-01T11:17:04.115Z,8560.00
2018-11-01T11:18:04.084Z,8396.00
2018-11-01T11:19:04.301Z,8312.00
2018-11-01T11:20:04.132Z,8296.00
2018-11-01T11:21:04.462Z,8176.00
2018-11-01T11:22:04.743Z,7964.00
2018-11-01T11:23:04.752Z,7764.00
2018-11-01T11:24:04.752Z,7564.00
2018-11-01T11:25:03.894Z,7460.00
2018-11-01T11:26:03.927Z,7452.00
2018-11-01T11:27:04.745Z,7532.00
2018-11-01T11:28:03.810Z,7632.00
2018-11-01T11:29:03.784Z,7716.00
2018-11-01T11:30:03.853Z,7824.00
2018-11-01T11:31:03.730Z,7944.00
2018-11-01T11:32:03.759Z,8060.00
2018-11-01T11:33:03.680Z,8148.00
2018-11-01T11:34:03.650Z,8164.00
2018-11-01T11:35:03.667Z,8156.00
2018-11-01T11:36:04.217Z,8132.00
2018-11-01T11:37:03.738Z,8116.00
2018-11-01T11:38:03.553Z,8088.00
2018-11-01T11:39:03.547Z,8044.00
2018-11-01T11:40:03.491Z,7984.00
2018-11-01T11:41:03.460Z,7928.00
2018-11-01T11:42:03.487Z,7908.00
2018-11-01T11:43:03.411Z,7896.00
2018-11-01T11:44:03.404Z,7888.00
2018-11-01T11:45:03.397Z,7868.00
2018-11-01T11:46:03.321Z,7840.00
2018-11-01T11:47:03.363Z,7780.00
2018-11-01T11:48:03.353Z,7652.00
2018-11-01T11:49:03.245Z,7440.00
2018-11-01T11:50:03.220Z,7192.00
2018-11-01T11:51:03.193Z,6976.00
2018-11-01T11:52:03.217Z,6804.00
2018-11-01T11:53:03.137Z,6636.00
2018-11-01T11:54:03.113Z,6464.00
2018-11-01T11:55:03.085Z,6296.00
2018-11-01T11:56:03.060Z,6184.00
2018-11-01T11:57:03.217Z,6112.00
2018-11-01T11:58:03.010Z,6032.00
2018-11-01T11:59:02.982Z,5924.00
2018-11-01T12:00:02.959Z,5832.00
2018-11-01T12:01:03.659Z,5780.00
2018-11-01T12:02:02.944Z,5728.00
2018-11-01T12:03:02.930Z,5656.00
2018-11-01T12:04:02.857Z,5604.00
2018-11-01T12:05:02.816Z,5616.00
2018-11-01T12:06:02.871Z,5672.00
2018-11-01T12:07:02.765Z,5692.00
2018-11-01T12:08:02.827Z,5708.00
2018-11-01T12:09:02.748Z,5732.00
2018-11-01T12:10:02.687Z,5744.00
2018-11-01T12:11:02.664Z,5752.00
2018-11-01T12:12:02.630Z,5776.00
2018-11-01T12:13:02.607Z,5792.00
2018-11-01T12:14:02.652Z,5768.00
2018-11-01T12:15:03.271Z,5712.00
2018-11-01T12:16:02.524Z,5652.00
2018-11-01T12:17:02.498Z,5584.00
2018-11-01T12:18:02.528Z,5500.00
2018-11-01T12:19:02.444Z,5428.00
2018-11-01T12:20:02.418Z,5368.00
2018-11-01T12:21:02.426Z,5316.00
2018-11-01T12:22:02.376Z,5284.00
2018-11-01T12:23:02.342Z,5272.00
2018-11-01T12:24:02.303Z,5284.00
2018-11-01T12:25:02.281Z,5308.00
2018-11-01T12:26:02.297Z,5332.00
2018-11-01T12:27:02.223Z,5348.00
2018-11-01T12:28:02.200Z,5348.00
2018-11-01T12:29:02.244Z,5348.00
2018-11-01T12:30:02.142Z,5360.00
2018-11-01T12:31:02.167Z,5364.00
2018-11-01T12:32:02.105Z,5332.00
2018-11-01T12:33:02.061Z,5284.00
2018-11-01T12:34:02.123Z,5216.00
2018-11-01T12:35:02.018Z,5156.00
2018-11-01T12:36:02.078Z,5084.00
2018-11-01T12:37:01.955Z,4992.00
2018-11-01T12:38:02.776Z,4916.00
2018-11-01T12:39:02.876Z,4888.00
2018-11-01T12:40:02.763Z,4828.00